Time;durP1;ratioP1;P1;durP2;ratioP2;P2;SDS_P1;SDS_P2;PMS_P1;PMS_P2;Temp;Humidity;BMP_temperature;BMP_pressure;BME280_temperature;BME280_humidity;BME280_pressure;Samples;Min_cycle;Max_cycle;Signal;HPM_P1;HPM_P2
2023/02/14 00:02:06;;;;;;;144.95;80.53;;;;;;;-4.05;100.00;102664.34;5033085;28;20111;-83
2023/02/14 00:04:37;;;;;;;145.18;80.63;;;;;;;-4.23;100.00;102660.75;5033362;28;20050;-82
2023/02/14 00:07:04;;;;;;;137.20;74.93;;;;;;;-4.11;100.00;102676.72;5032587;28;20059;-83
2023/02/14 00:09:31;;;;;;;145.43;77.85;;;;;;;-4.22;100.00;102670.22;5032831;28;20048;-83
2023/02/14 00:11:59;;;;;;;124.82;68.35;;;;;;;-4.38;100.00;102667.41;5033147;28;20049;-83
2023/02/14 00:17:10;;;;;;;127.57;73.45;;;;;;;-4.44;100.00;102672.00;5031953;28;20043;-82
2023/02/14 00:19:36;;;;;;;127.65;67.50;;;;;;;-4.43;100.00;102661.56;5033081;28;20461;-83
2023/02/14 00:22:04;;;;;;;122.55;68.47;;;;;;;-4.42;100.00;102665.84;5032852;28;20107;-82
2023/02/14 00:24:31;;;;;;;124.55;65.72;;;;;;;-4.27;100.00;102666.97;5032916;28;20045;-82
2023/02/14 00:27:00;;;;;;;122.60;67.95;;;;;;;-4.57;100.00;102674.22;5032870;28;20049;-82
2023/02/14 00:29:28;;;;;;;122.72;67.43;;;;;;;-4.37;100.00;102663.91;5032993;28;20042;-82
2023/02/14 00:31:56;;;;;;;123.65;68.13;;;;;;;-4.34;100.00;102664.69;5032691;28;20042;-82
2023/02/14 00:34:22;;;;;;;122.95;71.35;;;;;;;-4.43;100.00;102658.13;5033200;28;20054;-82
2023/02/14 00:36:50;;;;;;;131.07;73.63;;;;;;;-4.47;100.00;102652.22;5031907;28;20107;-82
2023/02/14 00:39:20;;;;;;;125.97;74.88;;;;;;;-4.44;100.00;102649.50;5031599;28;20555;-81
2023/02/14 00:41:47;;;;;;;120.85;68.32;;;;;;;-4.35;100.00;102657.81;5032445;28;20179;-81
2023/02/14 00:44:15;;;;;;;117.60;63.53;;;;;;;-4.42;100.00;102636.44;5031676;28;20045;-82
2023/02/14 00:46:42;;;;;;;119.50;63.92;;;;;;;-4.33;100.00;102641.25;5032853;28;20045;-83
2023/02/14 00:49:10;;;;;;;114.75;67.05;;;;;;;-4.56;100.00;102634.41;5032156;28;20495;-82
2023/02/14 00:51:37;;;;;;;120.75;69.72;;;;;;;-4.58;100.00;102623.25;5032534;28;20137;-82
2023/02/14 00:54:04;;;;;;;314.30;144.88;;;;;;;-4.52;100.00;102625.59;5032110;28;20052;-82
2023/02/14 00:56:31;;;;;;;187.05;100.30;;;;;;;-4.70;100.00;102618.56;5032322;28;20045;-83
2023/02/14 00:58:57;;;;;;;224.85;115.63;;;;;;;-4.79;100.00;102603.38;5031894;28;20041;-83
2023/02/14 01:01:26;;;;;;;201.13;104.90;;;;;;;-4.68;100.00;102601.19;5031836;28;20556;-82
2023/02/14 01:03:53;;;;;;;176.75;92.78;;;;;;;-4.75;100.00;102592.81;5032448;28;20056;-83
2023/02/14 01:06:19;;;;;;;172.05;91.30;;;;;;;-4.73;100.00;102584.97;5031901;28;20505;-83
2023/02/14 01:08:46;;;;;;;196.85;103.72;;;;;;;-4.61;100.00;102587.91;5031793;28;20049;-83
2023/02/14 01:11:15;;;;;;;185.13;108.25;;;;;;;-4.81;100.00;102585.28;5031409;28;20061;-83
2023/02/14 01:13:43;;;;;;;204.15;111.55;;;;;;;-4.80;100.00;102576.59;5031054;28;20128;-82
2023/02/14 01:16:13;;;;;;;208.68;116.72;;;;;;;-4.69;100.00;102577.03;5031785;28;20091;-83
2023/02/14 01:18:42;;;;;;;199.32;109.07;;;;;;;-4.56;100.00;102574.78;5031643;28;20045;-83
2023/02/14 01:21:15;;;;;;;172.75;95.78;;;;;;;-4.67;100.00;102564.81;5031706;28;20053;-83
2023/02/14 01:23:42;;;;;;;148.27;84.10;;;;;;;-4.65;100.00;102565.59;5031317;28;20045;-83
2023/02/14 01:26:10;;;;;;;141.27;73.75;;;;;;;-4.75;100.00;102572.09;5031454;28;20104;-83
2023/02/14 01:28:37;;;;;;;159.57;82.07;;;;;;;-4.82;100.00;102567.19;5031527;28;20050;-83
2023/02/14 01:31:09;;;;;;;153.30;83.93;;;;;;;-4.73;100.00;102567.66;5031614;28;20053;-83
2023/02/14 01:33:37;;;;;;;147.40;84.28;;;;;;;-4.77;100.00;102565.25;5031646;28;20038;-83
2023/02/14 01:36:05;;;;;;;145.18;80.80;;;;;;;-4.79;100.00;102554.09;5031409;28;20049;-83
2023/02/14 01:38:33;;;;;;;147.98;76.68;;;;;;;-4.80;100.00;102547.25;5030782;28;20482;-82
2023/02/14 01:40:59;;;;;;;147.18;75.78;;;;;;;-4.81;100.00;102556.78;5031793;28;20041;-83
2023/02/14 01:43:26;;;;;;;151.95;82.75;;;;;;;-5.01;100.00;102556.72;5031251;28;20564;-83
2023/02/14 01:45:53;;;;;;;199.43;111.72;;;;;;;-4.99;100.00;102553.16;5031164;28;20080;-84
2023/02/14 01:48:22;;;;;;;192.27;101.25;;;;;;;-4.88;100.00;102544.94;5030907;28;20053;-82
2023/02/14 01:50:53;;;;;;;177.65;101.30;;;;;;;-4.98;100.00;102536.69;5030981;28;20538;-83
2023/02/14 01:53:25;;;;;;;186.65;99.07;;;;;;;-4.88;100.00;102534.56;5031188;28;20115;-83
2023/02/14 01:55:59;;;;;;;238.10;123.95;;;;;;;-4.88;100.00;102538.00;5030378;28;20045;-83
2023/02/14 01:58:30;;;;;;;211.32;113.85;;;;;;;-4.87;100.00;102528.47;5031135;28;20473;-82
2023/02/14 02:00:56;;;;;;;189.82;103.75;;;;;;;-4.80;100.00;102518.72;5030558;28;20053;-81
2023/02/14 02:03:26;;;;;;;218.35;117.57;;;;;;;-4.89;100.00;102514.75;5031483;28;20049;-82
2023/02/14 02:05:57;;;;;;;165.88;90.80;;;;;;;-4.75;100.00;102512.44;5031037;28;20529;-82
2023/02/14 02:08:26;;;;;;;138.35;77.85;;;;;;;-4.70;100.00;102507.91;5030136;28;20524;-82
2023/02/14 02:10:52;;;;;;;130.65;83.68;;;;;;;-4.89;100.00;102504.38;5030049;28;20046;-84
2023/02/14 02:13:21;;;;;;;139.80;79.70;;;;;;;-4.82;100.00;102507.56;5030901;28;20052;-83
2023/02/14 02:16:02;;;;;;;132.05;80.43;;;;;;;-4.72;100.00;102520.09;5031331;28;20049;-82
2023/02/14 02:18:40;;;;;;;120.85;70.10;;;;;;;-4.50;100.00;102532.19;5031246;28;20140;-82
2023/02/14 02:21:55;;;;;;;112.32;64.80;;;;;;;-4.68;100.00;102531.19;5031291;28;20048;-82
2023/02/14 02:24:38;;;;;;;118.97;66.00;;;;;;;-4.38;100.00;102522.13;5030131;28;20144;-82
2023/02/14 02:27:35;;;;;;;137.23;73.57;;;;;;;-4.40;100.00;102504.94;5030727;28;20045;-82
2023/02/14 02:30:37;;;;;;;120.35;70.13;;;;;;;-4.52;100.00;102503.69;5029868;28;20049;-82
2023/02/14 02:33:34;;;;;;;124.72;72.07;;;;;;;-4.74;100.00;102498.56;5028330;28;20107;-83
2023/02/14 02:36:42;;;;;;;131.50;79.85;;;;;;;-4.96;100.00;102497.75;4985658;28;20092;-82
2023/02/14 02:39:27;;;;;;;167.25;92.10;;;;;;;-4.94;100.00;102496.78;5028786;28;20504;-82
2023/02/14 02:42:04;;;;;;;144.00;87.88;;;;;;;-5.03;100.00;102486.78;5030433;28;20469;-84
2023/02/14 02:44:44;;;;;;;137.23;78.75;;;;;;;-4.96;100.00;102479.59;5030508;28;21420;-83
2023/02/14 02:47:19;;;;;;;132.45;76.28;;;;;;;-4.82;100.00;102472.09;5030420;28;20096;-84
2023/02/14 02:58:29;;;;;;;136.32;79.32;;;;;;;-4.88;100.00;102459.41;5029451;28;20053;-82
2023/02/14 03:00:59;;;;;;;130.18;74.20;;;;;;;-4.85;100.00;102460.09;5033513;28;20426;-83
2023/02/14 03:06:12;;;;;;;119.00;71.22;;;;;;;-4.84;100.00;102454.03;5034436;28;20652;-82
2023/02/14 03:08:40;;;;;;;119.40;71.65;;;;;;;-4.77;100.00;102462.41;5033844;28;20576;-83
2023/02/14 03:11:07;;;;;;;121.30;71.82;;;;;;;-4.79;100.00;102460.78;5034015;28;20104;-83
2023/02/14 03:14:08;;;;;;;122.68;71.45;;;;;;;-4.70;100.00;102462.97;5033930;28;20108;-82
2023/02/14 03:16:41;;;;;;;114.72;69.78;;;;;;;-4.54;100.00;102456.22;5033654;28;20041;-83
2023/02/14 03:19:20;;;;;;;127.82;74.45;;;;;;;-4.25;100.00;102447.19;5034110;28;20046;-82
2023/02/14 03:21:54;;;;;;;121.43;68.68;;;;;;;-4.30;100.00;102443.09;5032630;28;20041;-83
2023/02/14 03:24:29;;;;;;;115.82;67.43;;;;;;;-4.14;100.00;102449.31;5034095;28;20045;-83
2023/02/14 03:27:03;;;;;;;111.35;68.07;;;;;;;-4.16;100.00;102435.56;5033932;28;20041;-82
2023/02/14 03:29:43;;;;;;;109.43;70.68;;;;;;;-4.58;100.00;102427.91;5033006;28;20136;-82
2023/02/14 03:32:19;;;;;;;119.97;84.05;;;;;;;-4.73;100.00;102419.03;5033337;28;20046;-84
2023/02/14 03:34:53;;;;;;;114.85;76.70;;;;;;;-4.82;100.00;102430.63;5035002;28;20489;-83
2023/02/14 03:37:26;;;;;;;113.82;71.25;;;;;;;-4.93;100.00;102436.28;5033528;28;20053;-82
2023/02/14 03:40:02;;;;;;;108.65;65.95;;;;;;;-5.04;100.00;102429.84;5033944;28;20045;-82
2023/02/14 03:42:35;;;;;;;115.75;70.22;;;;;;;-5.18;100.00;102412.25;5032886;28;20080;-81
2023/02/14 03:45:05;;;;;;;114.00;71.47;;;;;;;-5.02;100.00;102415.06;5033623;28;20121;-82
2023/02/14 03:47:36;;;;;;;106.15;64.43;;;;;;;-4.91;100.00;102418.88;5033541;28;20092;-83
2023/02/14 03:50:07;;;;;;;117.07;77.47;;;;;;;-5.00;100.00;102408.91;5033605;28;20092;-83
2023/02/14 03:52:34;;;;;;;112.82;70.30;;;;;;;-4.99;100.00;102408.03;5033358;28;20063;-83
2023/02/14 03:55:07;;;;;;;104.93;65.55;;;;;;;-4.70;100.00;102405.94;5033112;28;20491;-83
2023/02/14 03:57:42;;;;;;;111.47;70.63;;;;;;;-4.54;100.00;102396.56;5032807;28;20049;-83
2023/02/14 04:00:10;;;;;;;103.63;65.90;;;;;;;-4.30;100.00;102393.81;5032336;28;20056;-84
2023/02/14 04:02:41;;;;;;;107.50;71.43;;;;;;;-4.16;100.00;102404.41;5033288;28;20125;-84
2023/02/14 04:05:13;;;;;;;110.00;76.22;;;;;;;-4.12;100.00;102407.72;5034116;28;20053;-83
2023/02/14 04:07:47;;;;;;;;;;;;;;;-4.24;100.00;102403.91;5033476;28;20049;-83
2023/02/14 04:10:17;;;;;;;108.30;75.40;;;;;;;-4.34;100.00;102407.84;5032709;28;20011;-84
2023/02/14 04:12:44;;;;;;;110.00;70.97;;;;;;;-4.52;100.00;102404.28;5031397;28;20111;-82
2023/02/14 04:15:12;;;;;;;104.90;65.35;;;;;;;-4.60;100.00;102409.81;5032498;28;20045;-83
2023/02/14 04:20:35;;;;;;;99.90;59.58;;;;;;;-4.70;100.00;102427.50;4950824;29;20093;-82
2023/02/14 04:23:02;;;;;;;103.43;63.47;;;;;;;-4.92;100.00;102435.34;5014142;28;20128;-84
2023/02/14 04:25:30;;;;;;;92.88;59.92;;;;;;;-4.92;100.00;102435.34;5032986;28;20054;-83
2023/02/14 04:27:57;;;;;;;105.57;67.18;;;;;;;-4.80;100.00;102435.75;5033566;28;20108;-83
2023/02/14 04:30:24;;;;;;;94.03;61.50;;;;;;;-4.76;100.00;102432.97;5032371;28;20160;-82
2023/02/14 04:32:51;;;;;;;103.13;67.15;;;;;;;-5.05;100.00;102418.66;5032595;28;20427;-83
2023/02/14 04:35:18;;;;;;;119.38;82.97;;;;;;;-5.25;100.00;102422.03;5032460;28;20049;-83
2023/02/14 04:37:45;;;;;;;171.32;103.85;;;;;;;-5.29;100.00;102420.47;5033083;28;20050;-83
2023/02/14 04:40:15;;;;;;;142.82;90.85;;;;;;;-5.29;100.00;102425.66;5032840;28;20415;-83
2023/02/14 04:42:44;;;;;;;118.22;72.45;;;;;;;-5.53;100.00;102409.34;5032237;28;20529;-84
2023/02/14 04:45:11;;;;;;;122.25;74.20;;;;;;;-5.16;100.00;102408.69;5032280;28;20115;-83
2023/02/14 04:47:38;;;;;;;108.55;68.55;;;;;;;-5.30;100.00;102417.03;5032229;28;20059;-83
2023/02/14 04:50:05;;;;;;;110.82;68.18;;;;;;;-5.34;100.00;102423.25;5032279;28;20099;-83
2023/02/14 04:52:32;;;;;;;120.53;70.78;;;;;;;-5.24;100.00;102417.69;5032099;28;20049;-82
2023/02/14 04:54:59;;;;;;;108.25;63.42;;;;;;;-5.01;100.00;102429.72;5032502;28;20159;-84
2023/02/14 04:57:26;;;;;;;113.32;68.28;;;;;;;-5.02;100.00;102422.84;5032104;28;20046;-83
2023/02/14 04:59:54;;;;;;;112.97;69.78;;;;;;;-5.09;100.00;102417.06;5032477;28;20103;-83
2023/02/14 05:02:21;;;;;;;100.30;63.35;;;;;;;-5.28;100.00;102410.97;5032091;28;20519;-83
2023/02/14 05:04:47;;;;;;;112.80;67.13;;;;;;;-5.45;100.00;102414.22;5032852;28;20046;-81
2023/02/14 05:07:14;;;;;;;104.28;64.72;;;;;;;-5.40;100.00;102425.25;5030803;28;20099;-82
2023/02/14 05:09:41;;;;;;;99.95;61.20;;;;;;;-5.46;100.00;102426.31;4987474;28;20489;-83
2023/02/14 05:12:08;;;;;;;125.22;67.85;;;;;;;-5.31;100.00;102436.06;5030248;28;20494;-83
2023/02/14 05:14:34;;;;;;;106.35;64.20;;;;;;;-5.46;100.00;102428.06;5032120;28;20565;-82
2023/02/14 05:17:03;;;;;;;182.52;100.10;;;;;;;-5.63;100.00;102439.06;5031855;28;20103;-83
2023/02/14 05:19:30;;;;;;;202.43;105.03;;;;;;;-5.56;100.00;102438.78;4330788;28;10000762;-83
2023/02/14 05:21:57;;;;;;;194.82;98.03;;;;;;;-5.51;100.00;102448.94;5025594;28;20487;-82
2023/02/14 05:24:24;;;;;;;161.88;89.72;;;;;;;-5.37;100.00;102463.97;5024016;28;20131;-83
2023/02/14 05:26:51;;;;;;;152.02;83.90;;;;;;;-5.38;100.00;102457.94;5027047;28;20053;-82
2023/02/14 05:29:17;;;;;;;129.10;72.85;;;;;;;-5.22;100.00;102468.53;5027047;28;20038;-83
2023/02/14 05:31:44;;;;;;;104.63;58.55;;;;;;;-5.35;100.00;102468.19;5028559;28;20592;-82
2023/02/14 05:34:12;;;;;;;99.75;63.55;;;;;;;-5.23;100.00;102453.91;5030650;28;20076;-82
2023/02/14 05:36:39;;;;;;;103.03;59.15;;;;;;;-5.43;100.00;102453.84;5031690;28;20064;-82
2023/02/14 05:39:06;;;;;;;102.32;60.75;;;;;;;-5.34;100.00;102450.91;5030138;28;20498;-83
2023/02/14 05:41:33;;;;;;;173.30;95.18;;;;;;;-5.53;100.00;102459.38;5030806;28;20056;-83
2023/02/14 05:43:59;;;;;;;229.45;104.70;;;;;;;-5.62;100.00;102451.13;5030416;28;20049;-83
2023/02/14 05:46:26;;;;;;;191.95;92.00;;;;;;;-5.51;100.00;102456.72;5032409;28;20060;-83
2023/02/14 05:48:53;;;;;;;172.40;88.78;;;;;;;-5.29;100.00;102456.75;5030206;28;20107;-84
2023/02/14 05:51:21;;;;;;;169.55;89.95;;;;;;;-5.32;100.00;102449.09;5031340;28;20060;-83
2023/02/14 05:53:48;;;;;;;175.43;89.68;;;;;;;-5.37;100.00;102456.19;5032723;28;20053;-83
2023/02/14 05:56:15;;;;;;;180.50;91.72;;;;;;;-5.17;100.00;102456.25;5032645;28;20095;-83
2023/02/14 05:58:41;;;;;;;173.43;87.65;;;;;;;-5.14;100.00;102463.06;5032111;28;20053;-84
2023/02/14 06:01:08;;;;;;;184.63;96.10;;;;;;;-4.76;100.00;102478.78;5031710;28;20049;-83
2023/02/14 06:03:35;;;;;;;174.80;95.53;;;;;;;-4.83;100.00;102462.66;5031972;28;20071;-83
2023/02/14 06:06:02;;;;;;;226.25;121.90;;;;;;;-4.56;100.00;102467.59;5032444;28;20053;-83
2023/02/14 06:08:30;;;;;;;228.50;119.50;;;;;;;-4.29;100.00;102476.78;5030762;28;20054;-83
2023/02/14 06:10:57;;;;;;;182.55;104.13;;;;;;;-4.32;100.00;102469.13;5032105;28;20119;-82
2023/02/14 06:13:23;;;;;;;166.77;94.55;;;;;;;-4.02;100.00;102463.50;5030416;28;20110;-82
2023/02/14 06:15:51;;;;;;;198.15;104.68;;;;;;;-3.99;100.00;102476.34;5004160;28;20053;-83
2023/02/14 06:18:18;;;;;;;226.13;117.05;;;;;;;-3.75;100.00;102474.38;5029186;28;20050;-84
2023/02/14 06:20:45;;;;;;;224.60;124.63;;;;;;;-3.61;100.00;102479.78;5027952;28;20107;-84
2023/02/14 06:23:11;;;;;;;291.20;148.73;;;;;;;-3.53;100.00;102472.47;4994063;28;20037;-83
2023/02/14 06:25:39;;;;;;;321.77;166.07;;;;;;;-3.27;100.00;102483.38;5029761;28;20058;-83
2023/02/14 06:28:06;;;;;;;331.77;174.32;;;;;;;-3.23;100.00;102472.78;5030952;28;20053;-83
2023/02/14 06:30:33;;;;;;;262.88;143.20;;;;;;;-2.91;100.00;102485.13;5033491;28;20049;-83
2023/02/14 06:33:00;;;;;;;252.55;134.98;;;;;;;-2.33;100.00;102485.66;5030641;28;20130;-83
2023/02/14 06:35:26;;;;;;;237.77;131.90;;;;;;;-2.01;100.00;102472.72;5033399;28;20053;-82
2023/02/14 06:37:53;;;;;;;186.45;118.10;;;;;;;-1.38;100.00;102479.75;5034040;28;20046;-82
2023/02/14 06:40:20;;;;;;;167.10;111.38;;;;;;;-1.27;100.00;102476.53;5035114;28;20115;-84
2023/02/14 06:42:49;;;;;;;155.38;100.72;;;;;;;-0.84;100.00;102474.09;5034106;28;20584;-83
2023/02/14 06:45:16;;;;;;;170.45;107.30;;;;;;;-0.94;100.00;102472.03;5032566;28;20042;-83
2023/02/14 06:47:43;;;;;;;116.97;83.60;;;;;;;0.21;100.00;102479.97;5005974;28;20164;-84
2023/02/14 06:50:11;;;;;;;117.78;86.95;;;;;;;0.49;100.00;102489.53;5034428;28;20041;-83
2023/02/14 06:52:38;;;;;;;94.53;74.95;;;;;;;0.17;100.00;102486.31;5034136;28;20585;-83
2023/02/14 06:55:05;;;;;;;88.85;72.35;;;;;;;-0.05;100.00;102497.25;5034223;28;20122;-83
2023/02/14 06:57:32;;;;;;;83.97;69.32;;;;;;;0.06;100.00;102489.59;5034865;28;20049;-83
2023/02/14 07:00:00;;;;;;;86.50;64.57;;;;;;;0.67;100.00;102484.94;5033724;28;20045;-83
2023/02/14 07:02:27;;;;;;;82.78;67.13;;;;;;;0.18;100.00;102483.63;5031659;28;20400;-84
2023/02/14 07:04:54;;;;;;;85.63;62.78;;;;;;;0.73;100.00;102481.91;5031381;28;20045;-83
2023/02/14 07:07:21;;;;;;;84.63;60.90;;;;;;;0.68;100.00;102490.03;5033373;28;20053;-83
2023/02/14 07:09:47;;;;;;;82.05;61.83;;;;;;;0.68;100.00;102497.06;5033583;28;20103;-84
2023/02/14 07:12:14;;;;;;;82.20;64.18;;;;;;;1.96;100.00;102497.28;5033663;28;20096;-83
2023/02/14 07:14:41;;;;;;;73.00;57.40;;;;;;;0.94;100.00;102497.16;5033881;28;20122;-83
2023/02/14 07:17:09;;;;;;;76.93;58.42;;;;;;;0.88;100.00;102493.16;5033464;28;20465;-83
2023/02/14 07:19:36;;;;;;;69.95;55.92;;;;;;;1.50;100.00;102495.19;5033237;28;20088;-83
2023/02/14 07:22:03;;;;;;;77.50;61.45;;;;;;;1.99;100.00;102497.06;5032952;28;20049;-84
2023/02/14 07:24:30;;;;;;;70.30;54.92;;;;;;;1.62;100.00;102493.53;5033001;28;20049;-83
2023/02/14 07:26:57;;;;;;;73.88;59.03;;;;;;;2.04;100.00;102487.94;5033125;28;20090;-83
2023/02/14 07:29:23;;;;;;;70.93;58.33;;;;;;;1.74;100.00;102498.75;5032190;28;20049;-83
2023/02/14 07:31:50;;;;;;;71.35;58.05;;;;;;;1.44;100.00;102487.75;5033190;28;20062;-84
2023/02/14 07:34:52;;;;;;;64.85;54.78;;;;;;;1.82;100.00;102496.47;5033451;28;20095;-83
2023/02/14 07:37:18;;;;;;;70.72;55.85;;;;;;;3.27;100.00;102488.72;5025093;28;20095;-83
2023/02/14 07:39:45;;;;;;;72.00;59.05;;;;;;;3.09;100.00;102486.56;5032404;28;20038;-83
2023/02/14 07:42:13;;;;;;;69.97;58.65;;;;;;;3.37;100.00;102473.97;5030618;28;20419;-83
2023/02/14 07:44:39;;;;;;;69.50;58.55;;;;;;;3.37;100.00;102484.47;5033380;28;20115;-83
2023/02/14 07:47:06;;;;;;;57.97;51.70;;;;;;;3.22;100.00;102473.34;5031549;28;20049;-83
2023/02/14 07:49:33;;;;;;;67.75;52.00;;;;;;;3.36;100.00;102470.53;5033356;28;20083;-83
2023/02/14 07:52:03;;;;;;;63.40;53.70;;;;;;;4.44;100.00;102470.03;5033241;28;20567;-85
2023/02/14 07:54:29;;;;;;;60.40;52.20;;;;;;;4.15;100.00;102460.06;5006705;28;20119;-83
2023/02/14 07:56:56;;;;;;;59.90;48.30;;;;;;;3.94;100.00;102461.75;5032048;28;20111;-84
2023/02/14 07:59:23;;;;;;;62.63;49.28;;;;;;;2.90;100.00;102458.16;5032825;28;20500;-83
2023/02/14 08:01:50;;;;;;;57.42;50.75;;;;;;;4.47;100.00;102457.47;5025797;28;20635;-83
2023/02/14 08:04:17;;;;;;;57.22;48.50;;;;;;;4.96;100.00;102450.88;5033722;28;20404;-83
2023/02/14 08:06:44;;;;;;;54.17;47.95;;;;;;;3.17;100.00;102459.72;5032531;28;20498;-83
2023/02/14 08:09:23;;;;;;;59.63;53.55;;;;;;;4.01;100.00;102449.78;5032189;28;20556;-83
2023/02/14 08:14:34;;;;;;;56.45;50.13;;;;;;;4.89;100.00;102452.31;5032964;28;20061;-84
2023/02/14 08:17:01;;;;;;;55.58;44.53;;;;;;;4.66;100.00;102450.72;5032545;28;20045;-84
2023/02/14 08:19:28;;;;;;;55.15;47.10;;;;;;;4.92;100.00;102464.41;5030701;28;20049;-84
2023/02/14 08:21:55;;;;;;;58.83;50.13;;;;;;;4.28;100.00;102454.66;5031521;28;20208;-84
2023/02/14 08:24:23;;;;;;;55.20;48.35;;;;;;;3.86;100.00;102462.34;5032156;28;20045;-82
2023/02/14 08:26:50;;;;;;;79.85;57.95;;;;;;;4.80;100.00;102445.16;5028547;28;20111;-82
2023/02/14 08:29:18;;;;;;;57.75;44.25;;;;;;;4.95;100.00;102449.16;5032584;28;20049;-82
2023/02/14 08:31:46;;;;;;;59.63;45.55;;;;;;;5.39;100.00;102443.81;5032549;28;20053;-81
2023/02/14 08:34:13;;;;;;;52.78;41.67;;;;;;;4.40;100.00;102437.06;5032663;28;20103;-82
2023/02/14 08:36:40;;;;;;;49.42;42.45;;;;;;;3.94;100.00;102432.81;5032453;28;20100;-82
2023/02/14 08:39:07;;;;;;;60.28;45.53;;;;;;;4.42;100.00;102427.22;5032424;28;20463;-82
2023/02/14 08:41:36;;;;;;;57.50;47.42;;;;;;;6.12;100.00;102420.84;5032312;28;20065;-82
2023/02/14 08:44:03;;;;;;;52.30;41.50;;;;;;;4.65;100.00;102422.75;5031458;28;20049;-82
2023/02/14 08:46:30;;;;;;;51.42;41.97;;;;;;;6.03;100.00;102429.56;5032244;28;20114;-82
2023/02/14 08:48:57;;;;;;;58.30;47.65;;;;;;;5.89;100.00;102430.72;5032112;28;20136;-83
2023/02/14 08:51:24;;;;;;;51.03;39.53;;;;;;;6.20;100.00;102426.25;5032218;28;20056;-83
2023/02/14 08:53:58;;;;;;;52.75;41.42;;;;;;;4.42;100.00;102427.22;5031501;28;20100;-83
2023/02/14 08:56:25;;;;;;;50.78;41.40;;;;;;;6.09;100.00;102434.28;5030484;28;20103;-84
2023/02/14 08:58:54;;;;;;;54.15;42.00;;;;;;;7.74;100.00;102442.13;5031240;28;20041;-83
2023/02/14 09:01:21;;;;;;;53.97;43.03;;;;;;;6.79;100.00;102437.72;5031381;28;20502;-82
2023/02/14 09:03:48;;;;;;;47.33;39.35;;;;;;;7.23;100.00;102436.31;5032197;28;20107;-83
2023/02/14 09:06:16;;;;;;;50.50;42.17;;;;;;;6.03;100.00;102442.75;5030708;28;20077;-83
2023/02/14 09:08:44;;;;;;;51.65;40.95;;;;;;;8.04;100.00;102441.84;5031075;28;20067;-82
2023/02/14 09:11:17;;;;;;;50.38;43.90;;;;;;;7.11;100.00;102434.81;5030941;28;20057;-82
2023/02/14 09:13:45;;;;;;;46.50;39.63;;;;;;;7.21;100.00;102442.72;5026736;28;20053;-82
2023/02/14 09:16:16;;;;;;;49.67;42.95;;;;;;;8.34;100.00;102439.88;5029985;28;20095;-83
2023/02/14 09:18:43;;;;;;;48.47;41.17;;;;;;;5.71;100.00;102446.31;5031269;28;20076;-82
2023/02/14 09:21:17;;;;;;;57.40;42.38;;;;;;;8.76;100.00;102441.16;5029341;28;20054;-82
2023/02/14 09:23:43;;;;;;;50.85;41.65;;;;;;;6.29;100.00;102445.72;5030265;28;20107;-82
2023/02/14 09:26:12;;;;;;;51.58;43.97;;;;;;;4.68;100.00;102446.19;5031215;28;20509;-83
2023/02/14 09:28:39;;;;;;;50.03;40.58;;;;;;;6.15;100.00;102447.78;5031080;28;20465;-83
2023/02/14 09:31:10;;;;;;;51.60;41.83;;;;;;;7.03;100.00;102446.06;5027658;28;20573;-82
2023/02/14 09:33:39;;;;;;;47.50;40.97;;;;;;;7.82;100.00;102447.53;5030862;28;20111;-83
2023/02/14 09:38:50;;;;;;;47.72;39.88;;;;;;;8.77;100.00;102453.41;5024067;28;20052;-83
2023/02/14 09:41:38;;;;;;;46.70;40.20;;;;;;;8.11;100.00;102444.75;5030564;28;20144;-83
2023/02/14 09:44:07;;;;;;;45.35;37.00;;;;;;;6.20;100.00;102439.44;5023028;28;20099;-83
2023/02/14 09:46:42;;;;;;;49.78;40.97;;;;;;;8.26;100.00;102445.94;5029895;28;20079;-82
2023/02/14 09:49:15;;;;;;;46.65;41.20;;;;;;;5.90;100.00;102441.13;5029581;28;20103;-83
2023/02/14 09:51:48;;;;;;;52.28;42.88;;;;;;;6.14;100.00;102454.03;5030776;28;20111;-83
2023/02/14 09:54:20;;;;;;;47.45;38.03;;;;;;;7.78;100.00;102449.66;5030249;28;20115;-83
2023/02/14 09:56:50;;;;;;;;;;;;;;;8.18;100.00;102442.34;5030185;28;20045;-83
2023/02/14 09:59:23;;;;;;;49.03;41.33;;;;;;;6.66;100.00;102448.56;5027348;28;19921;-82
2023/02/14 10:01:57;;;;;;;48.38;36.95;;;;;;;7.21;100.00;102448.00;5028349;28;20072;-83
2023/02/14 10:04:31;;;;;;;50.25;44.88;;;;;;;11.18;100.00;102442.50;5029972;28;20127;-83
2023/02/14 10:07:08;;;;;;;48.78;39.65;;;;;;;7.56;100.00;102436.75;5028279;28;20046;-83
2023/02/14 10:09:53;;;;;;;46.40;39.53;;;;;;;7.85;100.00;102436.66;5026883;28;20087;-83
2023/02/14 10:12:24;;;;;;;47.35;40.97;;;;;;;10.05;100.00;102436.84;5025724;28;20128;-83
2023/02/14 10:14:53;;;;;;;49.30;40.33;;;;;;;8.52;100.00;102423.22;5027060;28;20057;-83
2023/02/14 10:17:28;;;;;;;47.35;42.38;;;;;;;8.26;100.00;102426.56;5026380;28;20518;-84
2023/02/14 10:19:59;;;;;;;45.53;39.97;;;;;;;9.46;100.00;102433.22;5026387;28;20049;-83
2023/02/14 10:22:34;;;;;;;47.60;42.65;;;;;;;11.43;100.00;102424.66;5027290;28;20046;-82
2023/02/14 10:25:07;;;;;;;47.70;37.60;;;;;;;8.37;100.00;102417.56;5025097;28;20557;-83
2023/02/14 10:27:38;;;;;;;50.05;42.05;;;;;;;8.92;100.00;102407.66;5026374;28;20489;-83
2023/02/14 10:30:12;;;;;;;48.30;42.35;;;;;;;10.37;100.00;102406.91;5026264;28;20450;-83
2023/02/14 10:32:45;;;;;;;44.78;39.97;;;;;;;10.07;100.00;102403.81;5027532;28;20111;-83
2023/02/14 10:35:23;;;;;;;43.55;36.25;;;;;;;10.23;97.92;102403.03;4672361;28;10000156;-83
2023/02/14 10:38:05;;;;;;;47.20;41.03;;;;;;;9.98;100.00;102396.81;5024623;28;20479;-83
2023/02/14 10:40:52;;;;;;;39.92;33.63;;;;;;;11.77;100.00;102404.91;5025491;28;20061;-83
2023/02/14 10:43:26;;;;;;;42.50;36.35;;;;;;;11.78;100.00;102394.09;5026518;28;20053;-83
2023/02/14 10:46:02;;;;;;;47.10;41.72;;;;;;;9.91;100.00;102389.66;5025276;28;20049;-83
2023/02/14 10:48:46;;;;;;;49.33;44.17;;;;;;;11.09;95.28;102382.34;5026378;28;20053;-83
2023/02/14 10:51:19;;;;;;;45.15;40.65;;;;;;;12.21;85.16;102372.44;5025840;28;20063;-83
2023/02/14 10:53:59;;;;;;;47.20;40.72;;;;;;;8.71;96.96;102372.72;5027300;28;20512;-83
2023/02/14 10:56:32;;;;;;;48.83;43.78;;;;;;;11.21;98.63;102371.16;5027251;28;20155;-83
2023/02/14 10:59:07;;;;;;;46.20;40.45;;;;;;;9.68;100.00;102366.34;5026265;28;20049;-84
2023/02/14 11:01:35;;;;;;;43.92;39.35;;;;;;;10.39;98.54;102370.41;5025987;28;20053;-83
2023/02/14 11:04:05;;;;;;;47.03;41.97;;;;;;;10.00;97.97;102362.16;5026035;28;20053;-82
2023/02/14 11:06:34;;;;;;;45.92;41.40;;;;;;;9.02;100.00;102362.53;5023026;28;20489;-83
2023/02/14 11:09:02;;;;;;;46.35;37.72;;;;;;;10.60;85.70;102355.81;5024916;28;20057;-83
2023/02/14 11:11:32;;;;;;;46.67;41.58;;;;;;;11.28;82.06;102355.34;5025150;28;20056;-83
2023/02/14 11:13:59;;;;;;;44.40;38.92;;;;;;;10.28;78.65;102357.44;5027920;28;20131;-83
2023/02/14 11:16:31;;;;;;;45.85;41.03;;;;;;;10.54;73.46;102354.63;5030220;28;20045;-83
2023/02/14 11:19:10;;;;;;;46.38;41.03;;;;;;;8.74;97.61;102345.09;5027146;28;20041;-83
2023/02/14 11:21:43;;;;;;;43.55;38.80;;;;;;;12.29;78.06;102335.94;5030356;28;20122;-83
2023/02/14 11:24:18;;;;;;;51.25;42.38;;;;;;;10.53;91.30;102331.72;5033545;28;20640;-83
2023/02/14 11:26:47;;;;;;;49.28;40.50;;;;;;;8.96;100.00;102339.31;5033917;28;20045;-82
2023/02/14 11:29:20;;;;;;;52.78;40.83;;;;;;;8.73;100.00;102335.50;5032973;28;20132;-82
2023/02/14 11:31:47;;;;;;;44.50;38.25;;;;;;;7.79;100.00;102340.19;5033442;28;21559;-83
2023/02/14 11:34:28;;;;;;;46.95;41.13;;;;;;;7.37;100.00;102333.72;5033993;28;20045;-83
2023/02/14 11:36:57;;;;;;;43.10;38.45;;;;;;;9.92;100.00;102331.09;5031291;28;20050;-83